• Join FlightAware (Why Join?)
  • Login
  • US Flag 
11:30PM EDT


 

Airport Tracker/Info


-or-


 

Live Flight TrackerFlight Track Log ✈ AWI3778 ✈ 14-Jun-2013 ✈ KBTV - KPHL

Flight Track Log - Related Links

Times and Time Zones

All times are in EDT time to prevent confusion due to time zone crossing. See the AWI3778 flight status page for this flight to view local times or setup timezone preferences in your user account.

Time Position Orientation Groundspeed Altitude Reporting Facility
EDT Latitude Longitude Course Direction KTS MPH feet Rate Location/Type
01:54PM 44.3683 -73.3258 195° South 315 362 8,100  Level Boston Center
01:55PM 44.2847 -73.3506 192° South 315 362 10,300 1,920 Climbing Boston Center
01:56PM 44.1783 -73.3839 193° South 320 368 12,400 1,800 Climbing Boston Center
01:57PM 43.8141 -73.3984 195° South  Level FlightAware Approximate
01:57PM 44.0758 -73.4139 192° South 354 407 14,000  Level Boston Center
01:58PM 43.7050 -73.4387 195° South  Level FlightAware Approximate
01:58PM 43.9814 -73.4903 210° Southwest 381 438 15,800  Level Boston Center
01:59PM 43.5958 -73.4788 195° South  Level FlightAware Approximate
01:59PM 43.8892 -73.5694 212° Southwest 391 450 17,700  Level Boston Center
02:00PM 43.8028 -73.6397 210° Southwest 402 463 19,400 1,500 Climbing Boston Center
02:01PM 43.7103 -73.7183 212° Southwest 402 463 20,700 1,200 Climbing Boston Center
02:02PM 43.6008 -73.8078 211° Southwest 413 475 21,900 1,200 Climbing Boston Center
02:03PM 43.5019 -73.8883 211° Southwest 413 475 23,100 1,020 Climbing Boston Center
02:04PM 43.4031 -73.9689 211° Southwest 413 475 24,000 420 Climbing Boston Center
02:05PM 43.3103 -74.0464 211° Southwest 418 481 24,000  Level Boston Center
02:06PM 43.2047 -74.1319 211° Southwest 432 497 24,000  Level Boston Center
02:07PM 43.0950 -74.2228 211° Southwest 447 514 24,000  Level Boston Center
02:08PM 42.9872 -74.3106 211° Southwest 452 520 24,000 -60 Level Boston Center
02:09PM 42.8797 -74.3981 211° Southwest 457 526 23,900  Descending Boston Center
02:10PM 42.7697 -74.4878 211° Southwest 457 526 24,000  Climbing Boston Center
02:11PM 42.6617 -74.5747 211° Southwest 457 526 24,000  Level Boston Center
02:12PM 42.5517 -74.6611 210° Southwest 457 526 24,000  Level Boston Center
02:13PM 42.4394 -74.7528 211° Southwest 463 533 24,000  Level Boston Center
02:14PM 42.3292 -74.8414 211° Southwest 463 533 24,000 -120 Level Boston Center
02:15PM 42.2189 -74.9267 210° Southwest 463 533 23,800 -1,500 Descending Boston Center
02:18PM 41.9767 -75.1258 211° Southwest 446 513 19,200 -1,500 Descending New York Center
02:19PM 41.8653 -75.2158 211° Southwest 440 506 19,000 -360 Descending New York Center
02:20PM 41.7600 -75.3006 211° Southwest 440 506 18,500 -1,440 Descending New York Center
02:21PM 41.6569 -75.3825 211° Southwest 440 506 16,100 -2,220 Descending New York Center
02:22PM 41.5664 -75.4567 212° Southwest 440 506 14,100 -2,040 Descending New York Center
02:23PM 41.4633 -75.5381 211° Southwest 413 475 12,100 -1,080 Descending New York Center
02:24PM 41.3792 -75.6067 211° Southwest 383 441 12,000 -60 Descending New York Center
02:25PM 41.3019 -75.6647 209° Southwest 373 429 12,000  Level New York Center
02:26PM 41.1986 -75.6903 191° South 343 395 12,000 -180 Level New York Center
02:27PM 41.1094 -75.6867 178° South 355 409 11,700 -720 Descending New York Center
02:28PM 41.0011 -75.6869 180° South 355 409 10,600 -900 Descending New York Center
02:29PM 40.9031 -75.6881 180° South 360 414 10,000 -300 Descending New York Center
02:30PM 40.8133 -75.6872 180° South 360 414 10,000  Level New York Center
02:31PM 40.7178 -75.6858 179° South 365 420 10,000  Level New York Center
02:32PM 40.6117 -75.6808 178° South 355 409 10,000  Level New York Center
02:33PM 40.5439 -75.6050 140° Southeast 324 373 10,000  Level New York Center
02:34PM 40.4956 -75.5089 123° Southeast 307 353 10,000  Level New York Center
02:35PM 40.4319 -75.4336 138° Southeast 301 346 10,000 -420 Level New York Center
02:36PM 40.3500 -75.4008 163° South 312 359 9,200 -1,140 Descending New York Center
02:37PM 40.2725 -75.3547 156° South 307 353 7,800 -1,380 Descending New York Center
02:38PM 40.1931 -75.3086 156° South 313 360 6,500 -1,380 Descending New York Center
02:39PM 40.1200 -75.2578 152° Southeast 303 349 5,100 -1,500 Descending New York Center
02:39PM 40.0667 -75.2167 149° Southeast 294 338 4,000 -720 Descending Philadelphia TRACON
02:40PM 40.0000 -75.2000 169° South 229 264 4,000  Level Philadelphia TRACON
02:41PM 39.9500 -75.1667 153° Southeast 223 257 4,000  Level Philadelphia TRACON
02:42PM 39.8833 -75.1500 169° South 220 253 4,000 -240 Level Philadelphia TRACON
02:43PM 39.8333 -75.1333 166° South 223 257 3,600 -780 Descending Philadelphia TRACON
02:44PM 39.7667 -75.1167 169° South 214 246 2,600 -900 Descending Philadelphia TRACON
02:45PM 39.7500 -75.1667 247° West 185 213 1,800 -840 Descending Philadelphia TRACON